Time,TemperatureF,DewpointF,PressureIn,WindDirection,WindDirectionDegrees,WindSpeedMPH,WindSpeedGustMPH,Humidity,HourlyPrecipIn,Conditions,Clouds,dailyrainin,SolarRadiationWatts/m^2,SoftwareType,DateUTC
2013-05-14 00:02:00,49.0,45.0,-100.00,East,98,2.0,3.0,86,0.00,,,0.00,0.000000,,2013-05-14 05:02:00,
2013-05-14 00:12:00,49.0,45.0,-100.00,East,98,2.0,3.0,86,0.00,,,0.00,0.000000,,2013-05-14 05:12:00,
2013-05-14 00:22:00,49.0,45.0,-100.00,East,98,2.0,3.0,86,0.00,,,0.00,0.000000,,2013-05-14 05:22:00,
2013-05-14 00:52:00,48.0,45.0,-100.00,East,89,2.0,3.0,88,0.00,,,0.00,0.000000,,2013-05-14 05:52:00,
2013-05-14 01:01:00,48.0,45.0,-100.00,East,89,2.0,3.0,88,0.00,,,0.00,0.000000,,2013-05-14 06:01:00,
2013-05-14 01:12:00,48.0,45.0,-100.00,East,89,2.0,3.0,88,0.00,,,0.00,0.000000,,2013-05-14 06:12:00,
2013-05-14 01:22:00,48.0,45.0,-100.00,East,89,2.0,3.0,88,0.00,,,0.00,0.000000,,2013-05-14 06:22:00,
2013-05-14 01:52:00,48.0,44.0,-100.00,East,98,2.0,3.0,87,0.00,,,0.00,0.000000,,2013-05-14 06:52:00,
2013-05-14 02:02:00,48.0,44.0,-100.00,East,98,2.0,3.0,87,0.00,,,0.00,0.000000,,2013-05-14 07:02:00,
2013-05-14 02:11:00,48.0,44.0,-100.00,East,98,2.0,3.0,87,0.00,,,0.00,0.000000,,2013-05-14 07:11:00,
2013-05-14 02:21:00,48.0,44.0,-100.00,East,98,2.0,3.0,87,0.00,,,0.00,0.000000,,2013-05-14 07:21:00,
2013-05-14 02:52:00,50.0,43.0,-100.00,SE,139,4.0,6.0,76,0.00,,,0.00,0.000000,,2013-05-14 07:52:00,
2013-05-14 03:02:00,50.0,43.0,-100.00,SE,139,4.0,6.0,76,0.00,,,0.00,0.000000,,2013-05-14 08:02:00,
2013-05-14 03:11:00,50.0,43.0,-100.00,SE,139,4.0,6.0,76,0.00,,,0.00,0.000000,,2013-05-14 08:11:00,
2013-05-14 03:21:00,50.0,43.0,-100.00,SE,139,4.0,6.0,76,0.00,,,0.00,0.000000,,2013-05-14 08:21:00,
2013-05-14 03:52:00,52.0,41.0,-100.00,SE,127,4.0,8.0,67,0.00,,,0.00,0.000000,,2013-05-14 08:52:00,
2013-05-14 04:02:00,52.0,41.0,-100.00,SE,127,4.0,8.0,67,0.00,,,0.00,0.000000,,2013-05-14 09:02:00,
2013-05-14 04:11:00,52.0,41.0,-100.00,SE,127,4.0,8.0,67,0.00,,,0.00,0.000000,,2013-05-14 09:11:00,
2013-05-14 04:22:00,52.0,41.0,-100.00,SE,127,4.0,8.0,67,0.00,,,0.00,0.000000,,2013-05-14 09:22:00,
2013-05-14 04:54:00,51.0,42.0,-100.00,ESE,104,3.0,8.0,70,0.00,,,0.00,0.000000,,2013-05-14 09:54:00,
2013-05-14 05:04:00,51.0,42.0,-100.00,ESE,104,3.0,8.0,70,0.00,,,0.00,0.000000,,2013-05-14 10:04:00,
2013-05-14 05:14:00,51.0,42.0,-100.00,ESE,104,3.0,8.0,70,0.00,,,0.00,0.000000,,2013-05-14 10:14:00,
2013-05-14 05:25:00,51.0,42.0,-100.00,ESE,104,3.0,8.0,70,0.00,,,0.00,0.000000,,2013-05-14 10:25:00,
2013-05-14 05:52:00,51.0,43.0,-100.00,SE,133,4.0,7.0,74,0.00,,,0.00,0.000000,,2013-05-14 10:52:00,
2013-05-14 06:02:00,51.0,43.0,-100.00,SE,133,4.0,7.0,74,0.00,,,0.00,0.000000,,2013-05-14 11:02:00,
2013-05-14 06:11:00,51.0,43.0,-100.00,SE,133,4.0,7.0,74,0.00,,,0.00,0.000000,,2013-05-14 11:11:00,
2013-05-14 06:22:00,51.0,43.0,-100.00,SE,133,4.0,7.0,74,0.00,,,0.00,0.000000,,2013-05-14 11:22:00,
2013-05-14 06:53:00,55.0,47.0,-100.00,SSE,150,5.0,8.0,74,0.00,,,0.00,14.000000,,2013-05-14 11:53:00,
2013-05-14 07:03:00,55.0,47.0,-100.00,SSE,150,5.0,8.0,74,0.00,,,0.00,14.000000,,2013-05-14 12:03:00,
2013-05-14 07:12:00,55.0,47.0,-100.00,SSE,150,5.0,8.0,74,0.00,,,0.00,14.000000,,2013-05-14 12:12:00,
2013-05-14 07:21:00,55.0,47.0,-100.00,SSE,150,5.0,8.0,74,0.00,,,0.00,14.000000,,2013-05-14 12:21:00,
2013-05-14 07:52:00,61.0,50.0,-100.00,South,177,4.0,10.0,67,0.00,,,0.00,143.000000,,2013-05-14 12:52:00,
2013-05-14 08:01:00,61.0,50.0,-100.00,South,177,4.0,10.0,67,0.00,,,0.00,143.000000,,2013-05-14 13:01:00,
2013-05-14 08:11:00,61.0,50.0,-100.00,South,177,4.0,10.0,67,0.00,,,0.00,143.000000,,2013-05-14 13:11:00,
2013-05-14 08:22:00,61.0,50.0,-100.00,South,177,4.0,10.0,67,0.00,,,0.00,143.000000,,2013-05-14 13:22:00,
2013-05-14 08:52:00,67.0,52.0,-100.00,SSW,197,5.0,14.0,58,0.00,,,0.00,400.000000,,2013-05-14 13:52:00,
2013-05-14 09:01:00,67.0,52.0,-100.00,SSW,197,5.0,14.0,58,0.00,,,0.00,400.000000,,2013-05-14 14:01:00,
2013-05-14 09:11:00,67.0,52.0,-100.00,SSW,197,5.0,14.0,58,0.00,,,0.00,400.000000,,2013-05-14 14:11:00,
2013-05-14 09:22:00,67.0,52.0,-100.00,SSW,197,5.0,14.0,58,0.00,,,0.00,400.000000,,2013-05-14 14:22:00,
2013-05-14 09:52:00,70.0,53.0,-100.00,SSW,207,6.0,13.0,54,0.00,,,0.00,621.000000,,2013-05-14 14:52:00,
2013-05-14 10:01:00,70.0,53.0,-100.00,SSW,207,6.0,13.0,54,0.00,,,0.00,621.000000,,2013-05-14 15:01:00,
2013-05-14 10:12:00,70.0,53.0,-100.00,SSW,207,6.0,13.0,54,0.00,,,0.00,621.000000,,2013-05-14 15:12:00,
2013-05-14 10:22:00,70.0,53.0,-100.00,SSW,207,6.0,13.0,54,0.00,,,0.00,621.000000,,2013-05-14 15:22:00,
2013-05-14 10:53:00,74.0,55.0,-100.00,SW,214,5.0,14.0,51,0.00,,,0.00,813.000000,,2013-05-14 15:53:00,
2013-05-14 11:02:00,74.0,55.0,-100.00,SW,214,5.0,14.0,51,0.00,,,0.00,813.000000,,2013-05-14 16:02:00,
2013-05-14 11:12:00,74.0,55.0,-100.00,SW,214,5.0,14.0,51,0.00,,,0.00,813.000000,,2013-05-14 16:12:00,
2013-05-14 11:23:00,74.0,55.0,-100.00,SW,214,5.0,14.0,51,0.00,,,0.00,813.000000,,2013-05-14 16:23:00,
2013-05-14 11:54:00,77.0,55.0,-100.00,SSW,193,7.0,13.0,46,0.00,,,0.00,956.000000,,2013-05-14 16:54:00,
2013-05-14 12:03:00,77.0,55.0,-100.00,SSW,193,7.0,13.0,46,0.00,,,0.00,956.000000,,2013-05-14 17:03:00,
2013-05-14 12:13:00,77.0,55.0,-100.00,SSW,193,7.0,13.0,46,0.00,,,0.00,956.000000,,2013-05-14 17:13:00,
2013-05-14 12:24:00,77.0,55.0,-100.00,SSW,193,7.0,13.0,46,0.00,,,0.00,956.000000,,2013-05-14 17:24:00,
2013-05-14 12:52:00,80.0,56.0,-100.00,SSW,199,7.0,15.0,44,0.00,,,0.00,1046.000000,,2013-05-14 17:52:00,
2013-05-14 13:02:00,80.0,56.0,-100.00,SSW,199,7.0,15.0,44,0.00,,,0.00,1046.000000,,2013-05-14 18:02:00,
2013-05-14 13:12:00,80.0,56.0,-100.00,SSW,199,7.0,15.0,44,0.00,,,0.00,1046.000000,,2013-05-14 18:12:00,
2013-05-14 13:22:00,80.0,56.0,-100.00,SSW,199,7.0,15.0,44,0.00,,,0.00,1046.000000,,2013-05-14 18:22:00,
2013-05-14 13:52:00,82.0,54.0,-100.00,SSW,213,8.0,20.0,38,0.00,,,0.00,1061.000000,,2013-05-14 18:52:00,
2013-05-14 14:01:00,82.0,54.0,-100.00,SSW,213,8.0,20.0,38,0.00,,,0.00,1061.000000,,2013-05-14 19:01:00,
2013-05-14 14:12:00,82.0,54.0,-100.00,SSW,213,8.0,20.0,38,0.00,,,0.00,1061.000000,,2013-05-14 19:12:00,
2013-05-14 14:22:00,82.0,54.0,-100.00,SSW,213,8.0,20.0,38,0.00,,,0.00,1061.000000,,2013-05-14 19:22:00,
2013-05-14 14:53:00,84.0,52.0,-100.00,SW,219,11.0,20.0,33,0.00,,,0.00,986.000000,,2013-05-14 19:53:00,
2013-05-14 15:02:00,84.0,52.0,-100.00,SW,219,11.0,20.0,33,0.00,,,0.00,986.000000,,2013-05-14 20:02:00,
2013-05-14 15:11:00,84.0,52.0,-100.00,SW,219,11.0,20.0,33,0.00,,,0.00,986.000000,,2013-05-14 20:11:00,
2013-05-14 15:23:00,84.0,52.0,-100.00,SW,219,11.0,20.0,33,0.00,,,0.00,986.000000,,2013-05-14 20:23:00,
2013-05-14 15:52:00,86.0,54.0,-100.00,SW,215,9.0,20.0,33,0.00,,,0.00,914.000000,,2013-05-14 20:52:00,
2013-05-14 16:03:00,86.0,54.0,-100.00,SW,215,9.0,20.0,33,0.00,,,0.00,914.000000,,2013-05-14 21:03:00,
2013-05-14 16:12:00,86.0,54.0,-100.00,SW,215,9.0,20.0,33,0.00,,,0.00,914.000000,,2013-05-14 21:12:00,
2013-05-14 16:23:00,86.0,54.0,-100.00,SW,215,9.0,20.0,33,0.00,,,0.00,914.000000,,2013-05-14 21:23:00,
2013-05-14 16:53:00,86.0,55.0,-100.00,SW,215,7.0,17.0,35,0.00,,,0.00,751.000000,,2013-05-14 21:53:00,
2013-05-14 17:03:00,86.0,55.0,-100.00,SW,215,7.0,17.0,35,0.00,,,0.00,751.000000,,2013-05-14 22:03:00,
2013-05-14 17:13:00,86.0,55.0,-100.00,SW,215,7.0,17.0,35,0.00,,,0.00,751.000000,,2013-05-14 22:13:00,
2013-05-14 17:24:00,86.0,55.0,-100.00,SW,215,7.0,17.0,35,0.00,,,0.00,751.000000,,2013-05-14 22:24:00,
2013-05-14 17:54:00,86.0,55.0,-100.00,SW,222,6.0,16.0,35,0.00,,,0.00,546.000000,,2013-05-14 22:54:00,
2013-05-14 18:03:00,86.0,55.0,-100.00,SW,222,6.0,16.0,35,0.00,,,0.00,546.000000,,2013-05-14 23:03:00,
2013-05-14 18:12:00,86.0,55.0,-100.00,SW,222,6.0,16.0,35,0.00,,,0.00,546.000000,,2013-05-14 23:12:00,
2013-05-14 18:21:00,86.0,55.0,-100.00,SW,222,6.0,16.0,35,0.00,,,0.00,546.000000,,2013-05-14 23:21:00,
2013-05-14 18:53:00,83.0,55.0,-100.00,SW,217,7.0,17.0,39,0.00,,,0.00,318.000000,,2013-05-14 23:53:00,
2013-05-14 19:02:00,83.0,55.0,-100.00,SW,217,7.0,17.0,39,0.00,,,0.00,318.000000,,2013-05-15 00:02:00,
2013-05-14 19:11:00,83.0,55.0,-100.00,SW,217,7.0,17.0,39,0.00,,,0.00,318.000000,,2013-05-15 00:11:00,
2013-05-14 19:21:00,83.0,55.0,-100.00,SW,217,7.0,17.0,39,0.00,,,0.00,318.000000,,2013-05-15 00:21:00,
2013-05-14 19:52:00,80.0,57.0,-100.00,SSW,211,5.0,14.0,45,0.00,,,0.00,100.000000,,2013-05-15 00:52:00,
2013-05-14 20:01:00,80.0,57.0,-100.00,SSW,211,5.0,14.0,45,0.00,,,0.00,100.000000,,2013-05-15 01:01:00,
2013-05-14 20:11:00,80.0,57.0,-100.00,SSW,211,5.0,14.0,45,0.00,,,0.00,100.000000,,2013-05-15 01:11:00,
2013-05-14 20:21:00,80.0,57.0,-100.00,SSW,211,5.0,14.0,45,0.00,,,0.00,100.000000,,2013-05-15 01:21:00,
2013-05-14 20:52:00,77.0,57.0,-100.00,SW,226,4.0,12.0,51,0.00,,,0.00,7.000000,,2013-05-15 01:52:00,
2013-05-14 21:02:00,77.0,57.0,-100.00,SW,226,4.0,12.0,51,0.00,,,0.00,7.000000,,2013-05-15 02:02:00,
2013-05-14 21:11:00,77.0,57.0,-100.00,SW,226,4.0,12.0,51,0.00,,,0.00,7.000000,,2013-05-15 02:11:00,
2013-05-14 21:21:00,77.0,57.0,-100.00,SW,226,4.0,12.0,51,0.00,,,0.00,7.000000,,2013-05-15 02:21:00,
2013-05-14 21:52:00,75.0,57.0,-100.00,SW,217,5.0,11.0,54,0.00,,,0.00,0.000000,,2013-05-15 02:52:00,
2013-05-14 22:01:00,75.0,57.0,-100.00,SW,217,5.0,11.0,54,0.00,,,0.00,0.000000,,2013-05-15 03:01:00,
2013-05-14 22:12:00,75.0,57.0,-100.00,SW,217,5.0,11.0,54,0.00,,,0.00,0.000000,,2013-05-15 03:12:00,
2013-05-14 22:22:00,75.0,57.0,-100.00,SW,217,5.0,11.0,54,0.00,,,0.00,0.000000,,2013-05-15 03:22:00,
2013-05-14 22:54:00,74.0,57.0,-100.00,SSW,208,5.0,12.0,55,0.00,,,0.00,0.000000,,2013-05-15 03:54:00,
2013-05-14 23:03:00,74.0,57.0,-100.00,SSW,208,5.0,12.0,55,0.00,,,0.00,0.000000,,2013-05-15 04:03:00,
2013-05-14 23:12:00,74.0,57.0,-100.00,SSW,208,5.0,12.0,55,0.00,,,0.00,0.000000,,2013-05-15 04:12:00,
2013-05-14 23:24:00,74.0,57.0,-100.00,SSW,208,5.0,12.0,55,0.00,,,0.00,0.000000,,2013-05-15 04:24:00,
2013-05-14 23:52:00,74.0,56.0,-100.00,SW,217,6.0,14.0,53,0.00,,,0.00,0.000000,,2013-05-15 04:52:00,